createdAt,value
2023-03-29T00:00:17.049Z,99491.31
2023-03-29T00:02:19.878Z,99489.94
2023-03-29T00:04:22.813Z,99498.31
2023-03-29T00:06:25.964Z,99486.59
2023-03-29T00:08:29.901Z,99495.84
2023-03-29T00:10:33.787Z,99497.97
2023-03-29T00:12:37.958Z,99501.47
2023-03-29T00:14:40.551Z,99506.88
2023-03-29T00:16:45.044Z,99510.09
2023-03-29T00:18:48.187Z,99510.91
2023-03-29T00:20:57.978Z,99512.78
2023-03-29T00:23:00.782Z,99516.28
2023-03-29T00:25:04.447Z,99508.44
2023-03-29T00:27:07.101Z,99509.50
2023-03-29T00:29:09.753Z,99512.72
2023-03-29T00:31:17.355Z,99514.34
2023-03-29T00:33:21.085Z,99517.28
2023-03-29T00:35:23.724Z,99514.84
2023-03-29T00:37:27.107Z,99512.66
2023-03-29T00:39:30.616Z,99510.69
2023-03-29T00:41:33.404Z,99512.56
2023-03-29T00:43:59.925Z,99511.16
2023-03-29T00:46:02.512Z,99515.19
2023-03-29T00:48:09.235Z,99516.25
2023-03-29T00:50:31.669Z,99514.88
2023-03-29T00:52:35.946Z,99499.72
2023-03-29T00:54:38.761Z,99499.16
2023-03-29T00:56:45.255Z,99494.59
2023-03-29T00:59:12.525Z,99490.25
2023-03-29T01:01:26.182Z,99482.97
2023-03-29T01:03:41.734Z,99483.72
2023-03-29T01:05:48.981Z,99485.28
2023-03-29T01:08:01.547Z,99480.13
2023-03-29T01:10:14.698Z,99482.50
2023-03-29T01:12:23.288Z,99494.38
2023-03-29T01:14:51.225Z,99484.38
2023-03-29T01:16:53.922Z,99487.34
2023-03-29T01:18:58.643Z,99482.19
2023-03-29T01:21:29.460Z,99487.81
2023-03-29T01:23:43.816Z,99493.13
2023-03-29T01:26:14.467Z,99500.19
2023-03-29T01:28:23.491Z,99489.41
2023-03-29T01:30:32.051Z,99496.91
2023-03-29T01:32:42.440Z,99498.88
2023-03-29T01:34:53.465Z,99498.88
2023-03-29T01:37:04.676Z,99511.50
2023-03-29T01:39:07.893Z,99506.63
2023-03-29T01:41:12.470Z,99501.81
2023-03-29T01:43:41.032Z,99517.41
2023-03-29T01:45:55.824Z,99502.03
2023-03-29T01:48:15.144Z,99504.75
2023-03-29T01:50:26.818Z,99513.31
2023-03-29T01:52:41.373Z,99506.03
2023-03-29T01:55:04.609Z,99500.66
2023-03-29T01:57:10.636Z,99507.69
2023-03-29T01:59:32.474Z,99503.44
2023-03-29T02:01:39.003Z,99512.94
2023-03-29T02:03:47.454Z,99508.34
2023-03-29T02:05:51.728Z,99503.25
2023-03-29T02:07:55.936Z,99515.44
2023-03-29T02:09:59.687Z,99506.59
2023-03-29T02:12:04.408Z,99515.84
2023-03-29T02:14:07.648Z,99512.41
2023-03-29T02:16:12.747Z,99519.25
2023-03-29T02:18:18.802Z,99516.63
2023-03-29T02:20:27.712Z,99519.66
2023-03-29T02:22:40.493Z,99513.53
2023-03-29T02:24:46.649Z,99515.78
2023-03-29T02:26:49.767Z,99521.28
2023-03-29T02:28:53.529Z,99511.03
2023-03-29T02:31:03.461Z,99520.84
2023-03-29T02:33:39.556Z,99518.19
2023-03-29T02:35:48.759Z,99520.97
2023-03-29T02:37:54.649Z,99534.78
2023-03-29T02:39:59.697Z,99525.13
2023-03-29T02:42:04.267Z,99520.31
2023-03-29T02:44:10.368Z,99534.69
2023-03-29T02:46:14.978Z,99541.22
2023-03-29T02:48:20.066Z,99544.53
2023-03-29T02:50:24.746Z,99555.41
2023-03-29T02:52:35.129Z,99545.16
2023-03-29T02:54:43.661Z,99535.22
2023-03-29T02:56:49.470Z,99545.56
2023-03-29T02:58:52.040Z,99545.84
2023-03-29T03:00:58.859Z,99546.72
2023-03-29T03:03:02.100Z,99551.88
2023-03-29T03:05:06.046Z,99542.72
2023-03-29T03:07:08.961Z,99552.50
2023-03-29T03:09:11.917Z,99547.34
2023-03-29T03:11:15.446Z,99556.09
2023-03-29T03:13:18.021Z,99555.56
2023-03-29T03:15:21.112Z,99555.06
2023-03-29T03:17:24.766Z,99566.19
2023-03-29T03:19:27.486Z,99562.72
2023-03-29T03:21:30.167Z,99550.31
2023-03-29T03:23:32.742Z,99550.81
2023-03-29T03:25:35.510Z,99554.34
2023-03-29T03:27:39.980Z,99553.56
2023-03-29T03:29:42.640Z,99553.34
2023-03-29T03:31:45.417Z,99553.09
2023-03-29T03:33:48.360Z,99538.44
2023-03-29T03:35:51.070Z,99546.59
2023-03-29T03:37:53.701Z,99539.06
2023-03-29T03:39:56.719Z,99549.34
2023-03-29T03:41:59.344Z,99552.63
2023-03-29T03:44:02.066Z,99539.41
2023-03-29T03:46:05.077Z,99551.09
2023-03-29T03:48:07.798Z,99547.59
2023-03-29T03:50:11.729Z,99547.28
2023-03-29T03:52:14.653Z,99550.06
2023-03-29T03:54:17.342Z,99543.56
2023-03-29T03:56:20.661Z,99538.69
2023-03-29T03:58:23.761Z,99542.47
2023-03-29T04:00:26.767Z,99539.28
2023-03-29T04:02:29.447Z,99547.13
2023-03-29T04:04:32.167Z,99545.53
2023-03-29T04:06:34.825Z,99550.97
2023-03-29T04:08:37.436Z,99550.72
2023-03-29T04:10:40.993Z,99555.00
2023-03-29T04:12:43.776Z,99549.34
2023-03-29T04:14:47.636Z,99559.31
2023-03-29T04:16:50.203Z,99566.66
2023-03-29T04:18:52.808Z,99562.91
2023-03-29T04:20:55.979Z,99566.97
2023-03-29T04:22:59.825Z,99571.03
2023-03-29T04:25:04.778Z,99581.59
2023-03-29T04:27:08.898Z,99568.56
2023-03-29T04:29:11.988Z,99585.66
2023-03-29T04:31:15.343Z,99578.94
2023-03-29T04:33:18.218Z,99569.16
2023-03-29T04:35:20.803Z,99581.63
2023-03-29T04:37:23.421Z,99589.44
2023-03-29T04:39:34.624Z,99584.84
2023-03-29T04:41:37.391Z,99595.41
2023-03-29T04:43:41.678Z,99583.50
2023-03-29T04:45:45.009Z,99591.34
2023-03-29T04:47:47.946Z,99590.53
2023-03-29T04:49:50.616Z,99586.47
2023-03-29T04:51:53.631Z,99596.53
2023-03-29T04:53:56.211Z,99603.06
2023-03-29T04:55:59.876Z,99610.63
2023-03-29T04:58:03.440Z,99607.31
2023-03-29T05:00:14.460Z,99604.91
2023-03-29T05:02:17.259Z,99597.88
2023-03-29T05:04:19.937Z,99612.50
2023-03-29T05:06:22.713Z,99610.41
2023-03-29T05:08:25.714Z,99611.28
2023-03-29T05:10:28.411Z,99619.16
2023-03-29T05:12:31.040Z,99602.94
2023-03-29T05:14:33.805Z,99609.16
2023-03-29T05:16:38.270Z,99608.91
2023-03-29T05:18:40.922Z,99607.03
2023-03-29T05:20:43.540Z,99605.69
2023-03-29T05:22:46.215Z,99610.50
2023-03-29T05:24:49.102Z,99618.13
2023-03-29T05:26:54.747Z,99623.53
2023-03-29T05:28:57.565Z,99618.19
2023-03-29T05:31:02.460Z,99617.13
2023-03-29T05:33:05.990Z,99626.41
2023-03-29T05:35:09.655Z,99620.47
2023-03-29T05:37:13.643Z,99622.94
2023-03-29T05:39:16.237Z,99624.31
2023-03-29T05:41:18.862Z,99631.38
2023-03-29T05:43:21.875Z,99629.78
2023-03-29T05:45:24.864Z,99629.88
2023-03-29T05:47:28.686Z,99630.16
2023-03-29T05:49:32.043Z,99628.31
2023-03-29T05:51:35.580Z,99640.50
2023-03-29T05:53:38.517Z,99642.13
2023-03-29T05:55:41.607Z,99637.00
2023-03-29T05:57:44.248Z,99637.28
2023-03-29T05:59:47.147Z,99637.59
2023-03-29T06:01:49.858Z,99631.63
2023-03-29T06:03:52.946Z,99635.47
2023-03-29T06:06:04.045Z,99641.94
2023-03-29T06:08:06.730Z,99638.44
2023-03-29T06:10:09.957Z,99641.16
2023-03-29T06:12:12.677Z,99643.38
2023-03-29T06:14:15.687Z,99639.88
2023-03-29T06:16:19.150Z,99645.63
2023-03-29T06:18:23.559Z,99642.38
2023-03-29T06:20:27.269Z,99642.94
2023-03-29T06:22:35.149Z,99649.19
2023-03-29T06:24:38.392Z,99645.69
2023-03-29T06:26:41.512Z,99643.25
2023-03-29T06:28:44.156Z,99647.59
2023-03-29T06:30:50.298Z,99646.25
2023-03-29T06:32:54.962Z,99647.91
2023-03-29T06:34:57.918Z,99649.81
2023-03-29T06:37:01.048Z,99652.78
2023-03-29T06:39:04.506Z,99653.91
2023-03-29T06:41:09.165Z,99657.44
2023-03-29T06:43:12.164Z,99653.09
2023-03-29T06:45:15.035Z,99656.06
2023-03-29T06:47:20.766Z,99651.19
2023-03-29T06:49:23.801Z,99652.00
2023-03-29T06:51:26.863Z,99655.28
2023-03-29T06:53:31.050Z,99642.00
2023-03-29T06:55:34.716Z,99644.19
2023-03-29T06:57:39.047Z,99630.09
2023-03-29T06:59:41.825Z,99636.88
2023-03-29T07:01:45.579Z,99638.50
2023-03-29T07:03:49.376Z,99625.22
2023-03-29T07:05:53.133Z,99627.63
2023-03-29T07:08:12.113Z,99634.47
2023-03-29T07:10:15.276Z,99620.88
2023-03-29T07:12:17.876Z,99628.72
2023-03-29T07:14:20.399Z,99633.66
2023-03-29T07:16:23.401Z,99627.66
2023-03-29T07:18:26.606Z,99636.09
2023-03-29T07:20:29.493Z,99634.16
2023-03-29T07:22:32.969Z,99620.84
2023-03-29T07:24:36.559Z,99625.22
2023-03-29T07:26:46.126Z,99618.94
2023-03-29T07:28:55.264Z,99621.94
2023-03-29T07:31:11.134Z,99609.13
2023-03-29T07:33:14.886Z,99616.47
2023-03-29T07:35:18.487Z,99606.38
2023-03-29T07:37:21.822Z,99611.00
2023-03-29T07:39:25.674Z,99615.59
2023-03-29T07:41:28.190Z,99618.28
2023-03-29T07:43:30.860Z,99624.25
2023-03-29T07:45:33.548Z,99631.25
2023-03-29T07:47:36.754Z,99635.03
2023-03-29T07:49:39.812Z,99630.94
2023-03-29T07:51:42.434Z,99622.78
2023-03-29T07:53:45.089Z,99632.75
2023-03-29T07:55:49.326Z,99628.09
2023-03-29T07:57:53.796Z,99630.00
2023-03-29T07:59:56.377Z,99633.88
2023-03-29T08:02:08.601Z,99637.66
2023-03-29T08:04:15.081Z,99633.25
2023-03-29T08:06:18.226Z,99632.91
2023-03-29T08:08:21.233Z,99629.88
2023-03-29T08:10:26.069Z,99639.91
2023-03-29T08:12:28.906Z,99635.84
2023-03-29T08:14:31.759Z,99629.28
2023-03-29T08:16:34.360Z,99627.34
2023-03-29T08:18:37.085Z,99627.53
2023-03-29T08:20:39.673Z,99620.53
2023-03-29T08:22:42.521Z,99626.81
2023-03-29T08:24:45.083Z,99630.63
2023-03-29T08:26:48.952Z,99624.00
2023-03-29T08:28:51.726Z,99616.59
2023-03-29T08:30:54.671Z,99625.72
2023-03-29T08:32:57.474Z,99622.38
2023-03-29T08:35:03.979Z,99628.31
2023-03-29T08:37:06.767Z,99619.91
2023-03-29T08:39:10.192Z,99618.81
2023-03-29T08:41:28.955Z,99618.19
2023-03-29T08:43:53.882Z,99624.97
2023-03-29T08:46:14.440Z,99614.28
2023-03-29T08:48:28.978Z,99627.44
2023-03-29T08:50:38.876Z,99624.34
2023-03-29T08:52:43.186Z,99618.31
2023-03-29T08:57:10.686Z,99607.09
2023-03-29T08:59:23.122Z,99607.13
2023-03-29T09:01:32.061Z,99603.16
2023-03-29T09:03:48.688Z,99613.00
2023-03-29T09:06:12.757Z,99617.66
2023-03-29T09:08:17.862Z,99610.06
2023-03-29T09:10:25.935Z,99607.03
2023-03-29T09:12:43.565Z,99612.91
2023-03-29T09:15:06.853Z,99603.94
2023-03-29T09:17:33.909Z,99606.66
2023-03-29T09:19:54.876Z,99603.44
2023-03-29T09:22:06.579Z,99587.81
2023-03-29T09:24:17.846Z,99583.16
2023-03-29T09:26:30.241Z,99587.41
2023-03-29T09:29:16.802Z,99591.41
2023-03-29T09:31:27.553Z,99579.31
2023-03-29T09:33:50.701Z,99580.69
2023-03-29T09:36:08.188Z,99578.19
2023-03-29T09:38:14.220Z,99581.44
2023-03-29T09:40:22.212Z,99575.97
2023-03-29T09:42:29.488Z,99581.50
2023-03-29T09:44:38.068Z,99569.28
2023-03-29T09:46:54.069Z,99563.63
2023-03-29T09:48:57.445Z,99560.63
2023-03-29T09:51:02.340Z,99559.56
2023-03-29T09:53:05.641Z,99548.19
2023-03-29T09:55:14.538Z,99561.41
2023-03-29T09:57:18.872Z,99552.69
2023-03-29T09:59:22.073Z,99550.75
2023-03-29T10:01:26.192Z,99550.72
2023-03-29T10:03:31.273Z,99550.97
2023-03-29T10:05:40.222Z,99543.78
2023-03-29T10:07:52.211Z,99549.47
2023-03-29T10:09:55.971Z,99540.13
2023-03-29T10:12:03.813Z,99533.63
2023-03-29T10:14:14.280Z,99527.25
2023-03-29T10:16:22.893Z,99520.81
2023-03-29T10:18:27.207Z,99527.25
2023-03-29T10:20:30.160Z,99524.44
2023-03-29T10:22:37.987Z,99529.88
2023-03-29T10:24:40.824Z,99523.84
2023-03-29T10:26:43.952Z,99517.50
2023-03-29T10:28:46.763Z,99517.44
2023-03-29T10:30:55.452Z,99517.28
2023-03-29T10:33:00.174Z,99504.91
2023-03-29T10:35:32.098Z,99508.72
2023-03-29T10:37:35.070Z,99486.22
2023-03-29T10:39:37.693Z,99486.75
2023-03-29T10:41:40.686Z,99490.00
2023-03-29T10:43:46.711Z,99489.91
2023-03-29T10:45:55.367Z,99484.00
2023-03-29T10:47:59.251Z,99484.69
2023-03-29T10:50:07.639Z,99484.94
2023-03-29T10:52:13.092Z,99478.66
2023-03-29T10:54:22.101Z,99465.38
2023-03-29T10:56:39.171Z,99483.91
2023-03-29T10:59:00.442Z,99475.94
2023-03-29T11:01:03.582Z,99468.34
2023-03-29T11:03:09.945Z,99465.75
2023-03-29T11:05:37.931Z,99455.13
2023-03-29T11:08:05.173Z,99466.78
2023-03-29T11:10:35.769Z,99468.19
2023-03-29T11:12:57.150Z,99478.13
2023-03-29T11:15:11.480Z,99485.34
2023-03-29T11:17:55.040Z,99477.03
2023-03-29T11:20:24.798Z,99466.50
2023-03-29T11:22:53.667Z,99459.75
2023-03-29T11:25:36.457Z,99479.59
2023-03-29T11:28:08.143Z,99468.03
2023-03-29T11:30:20.422Z,99473.06
2023-03-29T11:32:47.492Z,99471.16
2023-03-29T11:35:17.864Z,99465.84
2023-03-29T11:37:36.632Z,99466.84
2023-03-29T11:39:48.377Z,99468.41
2023-03-29T11:41:57.524Z,99463.63
2023-03-29T11:44:27.247Z,99468.47
2023-03-29T11:47:13.668Z,99468.28
2023-03-29T11:49:32.510Z,99462.56
2023-03-29T11:51:41.583Z,99461.25
2023-03-29T11:53:58.060Z,99447.41
2023-03-29T11:56:14.555Z,99450.31
2023-03-29T11:58:31.295Z,99447.28
2023-03-29T12:00:45.839Z,99442.09
2023-03-29T12:02:58.818Z,99438.78
2023-03-29T12:05:11.815Z,99442.72
2023-03-29T12:07:37.236Z,99428.75
2023-03-29T12:09:54.443Z,99425.56
2023-03-29T12:12:05.778Z,99427.31
2023-03-29T12:14:15.650Z,99426.38
2023-03-29T12:16:37.401Z,99419.94
2023-03-29T12:18:43.196Z,99425.19
2023-03-29T12:20:53.095Z,99418.66
2023-03-29T12:22:56.215Z,99422.09
2023-03-29T12:25:00.247Z,99417.91
2023-03-29T12:27:26.607Z,99417.16
2023-03-29T12:29:54.994Z,99417.16
2023-03-29T12:32:30.027Z,99414.09
2023-03-29T12:35:06.743Z,99406.38
2023-03-29T12:37:41.624Z,99410.19
2023-03-29T12:39:44.942Z,99404.41
2023-03-29T12:41:51.979Z,99404.09
2023-03-29T12:43:54.929Z,99394.25
2023-03-29T12:46:23.471Z,99391.63
2023-03-29T12:48:30.201Z,99389.22
2023-03-29T12:50:43.233Z,99392.56
2023-03-29T12:52:46.546Z,99385.75
2023-03-29T12:54:58.133Z,99400.59
2023-03-29T12:57:19.569Z,99385.88
2023-03-29T12:59:38.955Z,99390.72
2023-03-29T13:01:57.660Z,99381.31
2023-03-29T13:04:01.573Z,99388.44
2023-03-29T13:06:08.758Z,99382.91
2023-03-29T13:08:22.380Z,99384.50
2023-03-29T13:10:37.927Z,99377.22
2023-03-29T13:12:47.631Z,99383.00
2023-03-29T13:14:54.473Z,99376.91
2023-03-29T13:17:18.493Z,99377.78
2023-03-29T13:19:21.685Z,99369.34
2023-03-29T13:21:38.028Z,99377.13
2023-03-29T13:23:57.994Z,99379.06
2023-03-29T13:26:28.233Z,99378.22
2023-03-29T13:28:31.209Z,99377.22
2023-03-29T13:30:45.718Z,99374.13
2023-03-29T13:33:12.128Z,99374.28
2023-03-29T13:35:31.616Z,99367.59
2023-03-29T13:37:58.074Z,99363.25
2023-03-29T13:40:00.710Z,99356.63
2023-03-29T13:42:26.665Z,99355.44
2023-03-29T13:44:42.163Z,99353.38
2023-03-29T13:46:48.073Z,99352.09
2023-03-29T13:49:21.839Z,99342.94
2023-03-29T13:51:34.024Z,99352.22
2023-03-29T13:54:06.330Z,99348.56
2023-03-29T13:56:20.294Z,99359.88
2023-03-29T13:59:01.921Z,99350.72
2023-03-29T14:01:12.406Z,99352.00
2023-03-29T14:03:20.689Z,99352.59
2023-03-29T14:05:37.620Z,99350.53
2023-03-29T14:07:44.841Z,99351.09
2023-03-29T14:09:50.594Z,99341.41
2023-03-29T14:11:53.915Z,99342.38
2023-03-29T14:13:58.981Z,99348.81
2023-03-29T14:16:07.014Z,99338.34
2023-03-29T14:18:12.644Z,99338.00
2023-03-29T14:20:15.865Z,99339.13
2023-03-29T14:22:21.136Z,99335.41
2023-03-29T14:24:28.755Z,99347.50
2023-03-29T14:26:34.658Z,99336.06
2023-03-29T14:28:37.822Z,99342.56
2023-03-29T14:30:45.771Z,99351.56
2023-03-29T14:32:50.595Z,99345.41
2023-03-29T14:34:53.228Z,99340.69
2023-03-29T14:36:55.937Z,99341.53
2023-03-29T14:39:04.338Z,99338.25
2023-03-29T14:41:07.730Z,99341.50
2023-03-29T14:43:14.108Z,99339.78
2023-03-29T14:45:18.847Z,99349.56
2023-03-29T14:47:28.718Z,99324.75
2023-03-29T14:49:32.399Z,99330.84
2023-03-29T14:51:36.241Z,99335.81
2023-03-29T14:53:39.848Z,99334.25
2023-03-29T14:55:46.023Z,99337.41
2023-03-29T14:57:49.971Z,99331.84
2023-03-29T14:59:55.483Z,99343.72
2023-03-29T15:01:58.153Z,99322.69
2023-03-29T15:04:09.259Z,99348.44
2023-03-29T15:06:13.753Z,99335.09
2023-03-29T15:08:34.294Z,99336.41
2023-03-29T15:10:38.326Z,99336.09
2023-03-29T15:12:43.266Z,99334.03
2023-03-29T15:14:46.460Z,99337.91
2023-03-29T15:16:52.012Z,99334.81
2023-03-29T15:18:54.736Z,99334.22
2023-03-29T15:20:57.508Z,99339.56
2023-03-29T15:23:04.677Z,99340.16
2023-03-29T15:25:17.737Z,99335.78
2023-03-29T15:27:21.240Z,99339.88
2023-03-29T15:29:23.858Z,99337.25
2023-03-29T15:31:34.873Z,99339.56
2023-03-29T15:33:39.800Z,99336.81
2023-03-29T15:35:44.185Z,99340.75
2023-03-29T15:37:47.330Z,99338.16
2023-03-29T15:39:49.960Z,99338.06
2023-03-29T15:41:53.921Z,99334.34
2023-03-29T15:43:56.860Z,99350.47
2023-03-29T15:45:59.627Z,99358.66
2023-03-29T15:48:04.985Z,99366.91
2023-03-29T15:50:07.757Z,99368.13
2023-03-29T15:52:10.325Z,99387.22
2023-03-29T15:54:12.920Z,99383.44
2023-03-29T15:56:23.067Z,99384.63
2023-03-29T15:58:29.306Z,99382.53
2023-03-29T16:00:32.444Z,99381.81
2023-03-29T16:02:35.888Z,99378.28
2023-03-29T16:04:38.470Z,99385.13
2023-03-29T16:06:42.019Z,99378.84
2023-03-29T16:08:44.643Z,99382.69
2023-03-29T16:10:47.257Z,99373.25
2023-03-29T16:12:49.876Z,99392.06
2023-03-29T16:14:52.555Z,99376.06
2023-03-29T16:16:55.777Z,99381.81
2023-03-29T16:18:58.377Z,99386.75
2023-03-29T16:21:01.167Z,99390.06
2023-03-29T16:23:09.047Z,99396.00
2023-03-29T16:25:18.492Z,99394.97
2023-03-29T16:27:21.077Z,99388.19
2023-03-29T16:29:27.647Z,99399.13
2023-03-29T16:31:30.505Z,99395.13
2023-03-29T16:33:33.360Z,99397.09
2023-03-29T16:35:38.768Z,99393.59
2023-03-29T16:37:41.517Z,99394.72
2023-03-29T16:39:44.146Z,99394.25
2023-03-29T16:41:49.214Z,99405.13
2023-03-29T16:43:51.978Z,99402.47
2023-03-29T16:45:54.610Z,99406.03
2023-03-29T16:47:58.146Z,99406.59
2023-03-29T16:50:00.929Z,99409.88
2023-03-29T16:52:04.684Z,99402.31
2023-03-29T16:54:08.943Z,99405.56
2023-03-29T16:56:11.514Z,99402.09
2023-03-29T16:58:15.638Z,99404.59
2023-03-29T17:00:20.139Z,99400.50
2023-03-29T17:02:22.733Z,99398.88
2023-03-29T17:04:25.391Z,99394.56
2023-03-29T17:06:28.378Z,99392.69
2023-03-29T17:08:31.261Z,99391.56
2023-03-29T17:10:33.817Z,99394.06
2023-03-29T17:12:36.891Z,99393.28
2023-03-29T17:14:39.791Z,99399.03
2023-03-29T17:16:42.594Z,99378.09
2023-03-29T17:18:49.396Z,99379.47
2023-03-29T17:20:56.038Z,99380.56
2023-03-29T17:22:58.935Z,99381.94
2023-03-29T17:25:12.014Z,99370.31
2023-03-29T17:27:15.709Z,99378.16
2023-03-29T17:29:18.356Z,99372.22
2023-03-29T17:31:21.550Z,99381.22
2023-03-29T17:33:26.458Z,99369.81
2023-03-29T17:35:29.175Z,99369.28
2023-03-29T17:37:31.902Z,99362.84
2023-03-29T17:39:37.716Z,99366.06
2023-03-29T17:41:40.391Z,99367.16
2023-03-29T17:43:43.029Z,99360.41
2023-03-29T17:45:46.425Z,99358.25
2023-03-29T17:47:49.149Z,99369.13
2023-03-29T17:49:51.951Z,99372.16
2023-03-29T17:51:54.601Z,99369.97
2023-03-29T17:53:58.435Z,99346.66
2023-03-29T17:56:01.359Z,99354.25
2023-03-29T17:58:04.450Z,99351.28
2023-03-29T18:00:10.780Z,99343.16
2023-03-29T18:02:22.110Z,99341.25
2023-03-29T18:04:25.029Z,99340.44
2023-03-29T18:06:27.605Z,99329.63
2023-03-29T18:08:31.602Z,99335.88
2023-03-29T18:10:34.196Z,99328.56
2023-03-29T18:12:36.962Z,99333.75
2023-03-29T18:14:39.614Z,99333.22
2023-03-29T18:16:42.387Z,99339.47
2023-03-29T18:18:46.446Z,99333.25
2023-03-29T18:20:49.089Z,99334.06
2023-03-29T18:22:51.756Z,99335.16
2023-03-29T18:24:55.193Z,99345.78
2023-03-29T18:26:57.804Z,99348.75
2023-03-29T18:29:00.864Z,99353.91
2023-03-29T18:31:04.716Z,99349.88
2023-03-29T18:33:07.336Z,99358.03
2023-03-29T18:35:10.433Z,99362.09
2023-03-29T18:37:15.231Z,99367.53
2023-03-29T18:39:17.828Z,99362.41
2023-03-29T18:41:20.551Z,99362.94
2023-03-29T18:43:23.205Z,99360.53
2023-03-29T18:45:25.798Z,99359.16
2023-03-29T18:47:29.199Z,99347.22
2023-03-29T18:49:32.756Z,99349.13
2023-03-29T18:51:35.712Z,99348.03
2023-03-29T18:53:39.535Z,99354.00
2023-03-29T18:55:45.386Z,99341.28
2023-03-29T18:57:47.919Z,99354.03
2023-03-29T18:59:50.517Z,99359.47
2023-03-29T19:01:53.197Z,99361.09
2023-03-29T19:03:56.123Z,99353.75
2023-03-29T19:05:59.340Z,99357.28
2023-03-29T19:08:02.947Z,99341.31
2023-03-29T19:10:09.389Z,99366.28
2023-03-29T19:12:12.050Z,99360.56
2023-03-29T19:14:15.019Z,99360.31
2023-03-29T19:16:17.848Z,99356.22
2023-03-29T19:18:20.616Z,99364.88
2023-03-29T19:20:25.613Z,99367.91
2023-03-29T19:22:28.549Z,99386.09
2023-03-29T19:24:31.356Z,99383.91
2023-03-29T19:26:34.136Z,99376.06
2023-03-29T19:28:36.787Z,99375.50
2023-03-29T19:30:39.449Z,99384.47
2023-03-29T19:32:42.146Z,99389.31
2023-03-29T19:34:44.731Z,99394.78
2023-03-29T19:36:47.273Z,99394.50
2023-03-29T19:38:50.320Z,99403.16
2023-03-29T19:40:53.219Z,99394.53
2023-03-29T19:42:55.870Z,99405.06
2023-03-29T19:44:58.589Z,99418.66
2023-03-29T19:47:02.727Z,99418.94
2023-03-29T19:49:07.823Z,99405.91
2023-03-29T19:51:11.016Z,99408.34
2023-03-29T19:53:13.938Z,99410.53
2023-03-29T19:55:16.806Z,99402.94
2023-03-29T19:57:19.418Z,99404.28
2023-03-29T19:59:22.941Z,99408.88
2023-03-29T20:01:27.431Z,99401.03
2023-03-29T20:03:30.094Z,99412.41
2023-03-29T20:05:35.131Z,99410.50
2023-03-29T20:07:38.184Z,99405.94
2023-03-29T20:09:44.564Z,99398.84
2023-03-29T20:11:47.879Z,99412.97
2023-03-29T20:13:50.616Z,99415.41
2023-03-29T20:15:53.583Z,99407.25
2023-03-29T20:17:59.419Z,99394.25
2023-03-29T20:20:08.440Z,99390.72
2023-03-29T20:22:12.404Z,99386.91
2023-03-29T20:24:15.246Z,99381.78
2023-03-29T20:26:17.825Z,99379.06
2023-03-29T20:28:20.365Z,99384.22
2023-03-29T20:30:24.013Z,99381.75
2023-03-29T20:32:26.736Z,99388.03
2023-03-29T20:34:29.649Z,99382.59
2023-03-29T20:36:32.386Z,99379.06
2023-03-29T20:38:35.900Z,99378.25
2023-03-29T20:40:41.004Z,99375.28
2023-03-29T20:42:46.407Z,99377.16
2023-03-29T20:44:50.668Z,99380.97
2023-03-29T20:47:03.549Z,99367.97
2023-03-29T20:49:09.041Z,99377.69
2023-03-29T20:51:14.239Z,99374.19
2023-03-29T20:53:18.528Z,99366.84
2023-03-29T20:55:25.896Z,99373.09
2023-03-29T20:57:30.322Z,99376.91
2023-03-29T20:59:34.521Z,99368.47
2023-03-29T21:01:40.919Z,99368.47
2023-03-29T21:03:43.834Z,99372.53
2023-03-29T21:05:46.506Z,99372.53
2023-03-29T21:07:49.034Z,99364.97
2023-03-29T21:09:51.617Z,99372.28
2023-03-29T21:11:54.291Z,99375.25
2023-03-29T21:13:56.829Z,99374.72
2023-03-29T21:16:01.053Z,99370.38
2023-03-29T21:18:04.767Z,99371.75
2023-03-29T21:20:10.145Z,99378.78
2023-03-29T21:22:15.956Z,99376.91
2023-03-29T21:24:19.211Z,99370.38
2023-03-29T21:26:22.966Z,99372.28
2023-03-29T21:28:25.700Z,99375.00
2023-03-29T21:30:30.095Z,99361.72
2023-03-29T21:32:35.183Z,99367.38
2023-03-29T21:34:37.900Z,99378.53
2023-03-29T21:36:40.694Z,99371.19
2023-03-29T21:38:43.255Z,99367.94
2023-03-29T21:40:45.947Z,99366.56
2023-03-29T21:42:48.541Z,99370.94
2023-03-29T21:44:51.355Z,99369.56
2023-03-29T21:46:54.061Z,99372.53
2023-03-29T21:48:56.784Z,99360.59
2023-03-29T21:50:59.514Z,99360.09
2023-03-29T21:53:02.209Z,99372.84
2023-03-29T21:55:06.159Z,99365.75
2023-03-29T21:57:08.963Z,99360.88
2023-03-29T21:59:12.059Z,99361.44
2023-03-29T22:01:14.780Z,99361.44
2023-03-29T22:03:17.406Z,99363.59
2023-03-29T22:05:20.056Z,99355.22
2023-03-29T22:07:26.658Z,99361.19
2023-03-29T22:09:29.271Z,99361.97
2023-03-29T22:11:31.948Z,99358.72
2023-03-29T22:13:34.779Z,99355.50
2023-03-29T22:15:37.384Z,99353.59
2023-03-29T22:17:42.976Z,99350.56
2023-03-29T22:19:47.666Z,99350.06
2023-03-29T22:21:51.493Z,99346.00
2023-03-29T22:23:56.476Z,99342.44
2023-03-29T22:25:59.116Z,99346.25
2023-03-29T22:28:01.649Z,99351.13
2023-03-29T22:30:05.753Z,99349.78
2023-03-29T22:32:08.414Z,99347.88
2023-03-29T22:34:11.573Z,99340.56
2023-03-29T22:36:26.404Z,99339.19
2023-03-29T22:38:29.570Z,99343.53
2023-03-29T22:40:33.515Z,99336.47
2023-03-29T22:42:36.206Z,99327.53
2023-03-29T22:44:38.837Z,99329.69
2023-03-29T22:46:41.501Z,99328.06
2023-03-29T22:48:44.145Z,99330.78
2023-03-29T22:50:47.480Z,99326.72
2023-03-29T22:52:50.041Z,99329.16
2023-03-29T22:54:52.857Z,99316.13
2023-03-29T22:56:56.009Z,99328.06
2023-03-29T22:58:58.640Z,99324.28
2023-03-29T23:01:01.499Z,99326.72
2023-03-29T23:03:04.474Z,99322.09
2023-03-29T23:05:07.880Z,99321.28
2023-03-29T23:07:10.465Z,99324.00
2023-03-29T23:09:15.878Z,99310.72
2023-03-29T23:11:19.100Z,99319.94
2023-03-29T23:13:26.031Z,99327.28
2023-03-29T23:15:29.615Z,99325.06
2023-03-29T23:17:35.815Z,99323.72
2023-03-29T23:19:38.456Z,99325.63
2023-03-29T23:21:41.037Z,99325.34
2023-03-29T23:23:43.617Z,99327.81
2023-03-29T23:25:47.912Z,99328.88
2023-03-29T23:27:51.072Z,99318.84
2023-03-29T23:29:53.660Z,99315.56
2023-03-29T23:31:57.764Z,99319.13
2023-03-29T23:34:00.366Z,99312.88
2023-03-29T23:36:06.003Z,99321.28
2023-03-29T23:38:08.671Z,99319.13
2023-03-29T23:40:15.623Z,99325.91
2023-03-29T23:42:18.314Z,99313.41
2023-03-29T23:44:20.894Z,99312.63
2023-03-29T23:46:23.582Z,99320.75
2023-03-29T23:48:26.404Z,99317.47
2023-03-29T23:50:29.019Z,99318.31
2023-03-29T23:52:35.910Z,99318.56
2023-03-29T23:54:38.528Z,99318.31
2023-03-29T23:56:41.232Z,99317.19
2023-03-29T23:58:44.799Z,99318.84
